Batatais, Brazil
Current Conditions -  °F | °C
As of 5:00 PM on Friday 31 Oct 2014 (Local Time) from SBRP Reporting Station
Few Clouds Few Clouds  
Wind Chill: 93°   Ceiling: Unl
Heat Index: 93°   Visibility: 6mi
Dew Point: 57°   Wind: 6mph
Humidity: 30%   Direction: 120°ESE
Pressure: 29.83"   Gusts: NA
Location:  20.89°S, 47.58°W
Report Text: SBRP 311900Z 12005KT 9999 FEW049 34/14 Q1010
Loading
Personal Weather Stations






























Interactive Weather Map
Tropical Storm Tracking
New forecast layout! Learn more

10-Day Weather Forecast

Advertisements
Track Severe Weather on mobile